Time;durP1;ratioP1;P1;durP2;ratioP2;P2;SDS_P1;SDS_P2;PMS_P1;PMS_P2;Temp;Humidity;BMP_temperature;BMP_pressure;BME280_temperature;BME280_humidity;BME280_pressure;Samples;Min_cycle;Max_cycle;Signal;HPM_P1;HPM_P2
2021/01/24 00:02:09;;;;;;;8.40;5.23;;;3.00;99.90;;;;;;5088514;28;38269;-75
2021/01/24 00:04:35;;;;;;;10.13;5.73;;;3.00;99.90;;;;;;5084658;28;37661;-75
2021/01/24 00:07:02;;;;;;;7.33;4.83;;;3.00;99.90;;;;;;5088192;28;39585;-75
2021/01/24 00:09:28;;;;;;;10.87;5.50;;;3.00;99.90;;;;;;5080336;28;39030;-75
2021/01/24 00:11:54;;;;;;;11.03;5.93;;;3.00;99.90;;;;;;5060807;28;39222;-75
2021/01/24 00:14:20;;;;;;;12.13;6.00;;;3.10;99.90;;;;;;5083064;28;37327;-74
2021/01/24 00:16:46;;;;;;;12.23;6.27;;;3.10;99.90;;;;;;5084208;28;38445;-75
2021/01/24 00:19:12;;;;;;;14.53;6.40;;;3.10;99.90;;;;;;5085738;28;38945;-75
2021/01/24 00:21:38;;;;;;;12.07;6.67;;;3.10;99.90;;;;;;5091627;28;40354;-75
2021/01/24 00:24:06;;;;;;;13.87;7.43;;;3.10;99.90;;;;;;5084767;27;37459;-75
2021/01/24 00:26:32;;;;;;;10.87;6.77;;;3.20;99.90;;;;;;5063925;28;37390;-74
2021/01/24 00:28:58;;;;;;;10.17;6.47;;;3.20;99.90;;;;;;5076243;28;38745;-74
2021/01/24 00:31:24;;;;;;;13.00;7.43;;;3.20;99.90;;;;;;5089122;28;38410;-75
2021/01/24 00:33:50;;;;;;;14.63;7.60;;;3.20;99.90;;;;;;5080121;28;36040;-75
2021/01/24 00:36:19;;;;;;;13.40;6.90;;;3.20;99.90;;;;;;5083480;28;38630;-74
2021/01/24 00:38:46;;;;;;;12.23;7.03;;;3.20;99.90;;;;;;5072005;28;39285;-74
2021/01/24 00:41:12;;;;;;;13.97;7.60;;;3.20;99.90;;;;;;5085514;28;38461;-74
2021/01/24 00:43:39;;;;;;;10.00;6.40;;;3.20;99.90;;;;;;5070934;28;36913;-74
2021/01/24 00:46:05;;;;;;;15.77;8.00;;;3.20;99.90;;;;;;5065157;28;37464;-74
2021/01/24 00:48:35;;;;;;;13.37;7.60;;;3.20;99.90;;;;;;5070532;28;40519;-75
2021/01/24 00:51:03;;;;;;;12.03;6.70;;;3.20;99.90;;;;;;5094332;27;39471;-74
2021/01/24 00:53:29;;;;;;;16.50;7.73;;;3.20;99.90;;;;;;5090188;28;37940;-74
2021/01/24 00:55:55;;;;;;;14.53;7.50;;;3.30;99.90;;;;;;5084100;28;37153;-74
2021/01/24 00:58:21;;;;;;;16.10;7.60;;;3.20;99.90;;;;;;5069918;28;38444;-74
2021/01/24 01:00:47;;;;;;;14.53;7.90;;;3.20;99.90;;;;;;5070166;28;38177;-74
2021/01/24 01:03:13;;;;;;;10.73;5.67;;;3.20;99.90;;;;;;5069775;28;36763;-75
2021/01/24 01:05:40;;;;;;;9.00;4.50;;;3.30;99.90;;;;;;5076565;28;40000;-74
2021/01/24 01:08:06;;;;;;;12.17;4.83;;;3.40;99.90;;;;;;5073972;28;38217;-75
2021/01/24 01:10:33;;;;;;;8.87;4.77;;;3.50;99.90;;;;;;5084444;28;38581;-75
2021/01/24 01:13:00;;;;;;;8.70;5.03;;;3.60;99.90;;;;;;5087823;28;37034;-75
2021/01/24 01:15:26;;;;;;;7.73;5.10;;;3.70;99.90;;;;;;5091910;28;38661;-74
2021/01/24 01:17:52;;;;;;;12.67;6.10;;;3.70;99.90;;;;;;5076841;28;38821;-75
2021/01/24 01:20:18;;;;;;;10.83;4.90;;;3.80;99.90;;;;;;5083642;27;39683;-74
2021/01/24 01:22:44;;;;;;;6.77;3.50;;;3.70;99.90;;;;;;5085863;28;38238;-75
2021/01/24 01:25:11;;;;;;;5.00;3.33;;;3.70;99.90;;;;;;5089702;28;39322;-74
2021/01/24 01:27:37;;;;;;;5.77;3.50;;;3.60;99.90;;;;;;5089420;28;38920;-75
2021/01/24 01:30:08;;;;;;;6.80;2.60;;;3.60;99.90;;;;;;5091073;28;38190;-74
2021/01/24 01:32:35;;;;;;;7.37;2.30;;;3.60;99.90;;;;;;5080383;28;48359;-75
2021/01/24 01:35:03;;;;;;;3.03;1.67;;;3.50;99.90;;;;;;5077099;28;40486;-74
2021/01/24 01:37:29;;;;;;;2.87;1.53;;;3.40;99.90;;;;;;5073827;28;38202;-74
2021/01/24 01:39:56;;;;;;;4.63;2.10;;;3.40;99.90;;;;;;5065211;28;40135;-74
2021/01/24 01:42:22;;;;;;;3.13;1.90;;;3.40;99.90;;;;;;5061831;28;35866;-75
2021/01/24 01:44:48;;;;;;;4.13;2.00;;;3.30;99.90;;;;;;5074826;28;39251;-74
2021/01/24 01:47:22;;;;;;;3.57;2.23;;;3.30;99.90;;;;;;5071768;28;40899;-74
2021/01/24 01:49:50;;;;;;;5.20;2.73;;;3.30;99.90;;;;;;5069982;28;39498;-74
2021/01/24 01:52:17;;;;;;;13.73;3.13;;;3.40;99.90;;;;;;5060126;28;37615;-74
2021/01/24 01:54:46;;;;;;;9.23;3.30;;;3.40;99.90;;;;;;5069437;28;40589;-75
2021/01/24 01:57:12;;;;;;;5.53;2.97;;;3.50;99.90;;;;;;5070478;28;39764;-74
2021/01/24 01:59:39;;;;;;;7.83;3.40;;;3.50;99.90;;;;;;5074519;28;37922;-74
2021/01/24 02:02:28;;;;;;;5.87;3.30;;;3.50;99.90;;;;;;5085612;28;37365;-74
2021/01/24 02:05:22;;;;;;;6.07;2.83;;;3.50;99.90;;;;;;5085338;28;39253;-75
2021/01/24 02:08:11;;;;;;;4.60;2.60;;;3.50;99.90;;;;;;5070254;28;47044;-75
2021/01/24 02:10:50;;;;;;;5.03;2.13;;;3.40;99.90;;;;;;5088508;28;48793;-76
2021/01/24 02:13:39;;;;;;;4.60;1.60;;;3.10;99.90;;;;;;5083887;28;37003;-75
2021/01/24 02:16:07;;;;;;;3.00;1.63;;;2.90;99.90;;;;;;5070558;28;40417;-76
2021/01/24 02:18:36;;;;;;;3.20;1.87;;;2.70;99.90;;;;;;5078106;28;38797;-76
2021/01/24 02:21:34;;;;;;;4.47;1.93;;;2.70;99.90;;;;;;5059394;28;38582;-75
2021/01/24 02:24:03;;;;;;;2.80;1.57;;;2.70;99.90;;;;;;5064817;28;37858;-76
2021/01/24 02:26:43;;;;;;;10.77;2.50;;;2.80;99.90;;;;;;5063727;28;46210;-76
2021/01/24 02:29:32;;;;;;;6.30;2.90;;;2.80;99.90;;;;;;5072371;28;39440;-76
2021/01/24 02:32:01;;;;;;;7.13;1.97;;;2.90;99.90;;;;;;5083589;27;38233;-76
2021/01/24 02:34:32;;;;;;;4.53;1.63;;;2.90;99.90;;;;;;5081983;28;47128;-76
2021/01/24 02:37:00;;;;;;;6.20;1.50;;;3.00;99.90;;;;;;5075300;28;40601;-76
2021/01/24 02:39:27;;;;;;;3.67;1.40;;;3.00;99.90;;;;;;5081410;28;40298;-76
2021/01/24 02:41:53;;;;;;;5.07;1.93;;;3.10;99.90;;;;;;5071326;27;39165;-76
2021/01/24 02:44:21;;;;;;;2.97;1.93;;;3.10;99.90;;;;;;5084534;28;37859;-76
2021/01/24 02:46:47;;;;;;;5.67;1.37;;;3.10;99.90;;;;;;5074008;28;39873;-76
2021/01/24 02:49:14;;;;;;;4.37;1.77;;;3.10;99.90;;;;;;5052323;28;39715;-76
2021/01/24 02:51:41;;;;;;;4.40;1.00;;;3.10;99.90;;;;;;5082950;28;39396;-76
2021/01/24 02:54:10;;;;;;;2.17;1.03;;;3.10;99.90;;;;;;5080860;28;38903;-77
2021/01/24 02:56:37;;;;;;;4.30;0.83;;;3.00;99.90;;;;;;5074451;28;39146;-76
2021/01/24 02:59:03;;;;;;;1.83;0.83;;;3.10;99.90;;;;;;5106952;28;38362;-76
2021/01/24 03:01:30;;;;;;;3.40;0.70;;;3.10;99.90;;;;;;5096570;28;38875;-76
2021/01/24 03:03:56;;;;;;;6.17;1.27;;;3.00;99.90;;;;;;5104591;28;37182;-76
2021/01/24 03:06:22;;;;;;;2.93;1.00;;;2.90;99.90;;;;;;5090904;28;37585;-76
2021/01/24 03:08:48;;;;;;;4.17;1.10;;;2.80;99.90;;;;;;5075395;28;38546;-76
2021/01/24 03:11:19;;;;;;;5.43;1.43;;;2.70;99.90;;;;;;5083011;28;39285;-76
2021/01/24 03:13:48;;;;;;;5.00;1.80;;;2.60;99.90;;;;;;5082924;28;36503;-76
2021/01/24 03:16:16;;;;;;;3.53;1.20;;;2.60;99.90;;;;;;5092028;28;39819;-76
2021/01/24 03:18:44;;;;;;;3.60;1.10;;;2.40;99.90;;;;;;5069497;28;38504;-77
2021/01/24 03:21:13;;;;;;;5.60;1.57;;;2.30;99.90;;;;;;5098924;28;38672;-76
2021/01/24 03:23:40;;;;;;;7.50;1.90;;;2.30;99.90;;;;;;5089295;28;38560;-76
2021/01/24 03:26:07;;;;;;;6.43;1.20;;;2.40;99.90;;;;;;5094591;28;39402;-76
2021/01/24 03:28:41;;;;;;;3.10;1.30;;;2.40;99.90;;;;;;5102098;28;39068;-76
2021/01/24 03:31:09;;;;;;;4.77;1.33;;;2.50;99.90;;;;;;5101357;28;20097;-76
2021/01/24 03:33:36;;;;;;;2.67;0.87;;;2.50;99.90;;;;;;5092666;28;38125;-76
2021/01/24 03:36:04;;;;;;;3.83;1.10;;;2.50;99.90;;;;;;5080765;28;39179;-77
2021/01/24 03:38:30;;;;;;;3.60;0.80;;;2.50;99.90;;;;;;5086527;28;39124;-77
2021/01/24 03:40:56;;;;;;;2.73;1.10;;;2.50;99.90;;;;;;5098834;28;36552;-77
2021/01/24 03:43:22;;;;;;;5.23;1.53;;;2.50;99.90;;;;;;5067197;28;36202;-76
2021/01/24 03:45:48;;;;;;;4.37;1.30;;;2.40;99.90;;;;;;5071196;28;38812;-77
2021/01/24 03:48:14;;;;;;;5.67;1.37;;;2.30;99.90;;;;;;5078171;28;38817;-75
2021/01/24 03:50:41;;;;;;;6.57;2.20;;;2.20;99.90;;;;;;5070763;28;38869;-76
2021/01/24 03:53:07;;;;;;;2.80;1.63;;;2.20;99.90;;;;;;5086472;28;37016;-76
2021/01/24 03:55:33;;;;;;;2.90;1.20;;;2.30;99.90;;;;;;5076026;28;40689;-76
2021/01/24 03:57:59;;;;;;;4.17;1.73;;;2.20;99.90;;;;;;5092128;28;38783;-76
2021/01/24 04:00:25;;;;;;;4.13;1.20;;;2.20;99.90;;;;;;5087480;28;37712;-76
2021/01/24 04:02:51;;;;;;;6.40;1.33;;;2.20;99.90;;;;;;5083707;28;37944;-76
2021/01/24 04:05:17;;;;;;;3.07;1.50;;;2.20;99.90;;;;;;5090066;28;40430;-76
2021/01/24 04:07:43;;;;;;;1.70;1.00;;;2.20;99.90;;;;;;5096075;28;39652;-77
2021/01/24 04:10:10;;;;;;;3.63;1.10;;;2.20;99.90;;;;;;5103004;28;38196;-77
2021/01/24 04:12:36;;;;;;;3.33;1.00;;;2.30;99.90;;;;;;5095621;28;36700;-77
2021/01/24 04:15:06;;;;;;;4.63;1.00;;;2.30;99.90;;;;;;5087788;28;39539;-77
2021/01/24 04:17:32;;;;;;;1.20;0.60;;;2.30;99.90;;;;;;5086350;28;39487;-77
2021/01/24 04:19:58;;;;;;;1.70;0.70;;;2.30;99.90;;;;;;5089783;28;38689;-77
2021/01/24 04:22:25;;;;;;;3.70;0.80;;;2.30;99.90;;;;;;5088007;28;37096;-77
2021/01/24 04:24:51;;;;;;;2.87;0.97;;;2.20;99.90;;;;;;5072735;28;38956;-77
2021/01/24 04:27:17;;;;;;;1.40;0.87;;;2.20;99.90;;;;;;5086829;28;37338;-77
2021/01/24 04:29:43;;;;;;;1.20;0.77;;;2.20;99.90;;;;;;5075092;28;37353;-77
2021/01/24 04:32:09;;;;;;;1.90;0.70;;;2.20;99.90;;;;;;5091002;28;38344;-77
2021/01/24 04:34:36;;;;;;;3.83;1.43;;;2.10;99.90;;;;;;5091661;28;39954;-77
2021/01/24 04:37:02;;;;;;;3.63;1.10;;;2.10;99.90;;;;;;5088647;28;40010;-77
2021/01/24 04:39:28;;;;;;;4.70;1.10;;;2.00;99.90;;;;;;5088990;28;40416;-76
2021/01/24 04:41:54;;;;;;;2.23;1.17;;;1.90;99.90;;;;;;5090436;28;40864;-77
2021/01/24 04:44:22;;;;;;;4.20;1.60;;;1.90;99.90;;;;;;5077912;28;40640;-77
2021/01/24 04:46:50;;;;;;;2.90;1.80;;;1.90;99.90;;;;;;5078850;28;39730;-77
2021/01/24 04:49:17;;;;;;;3.43;1.80;;;1.90;99.90;;;;;;5091271;28;36904;-77
2021/01/24 04:51:43;;;;;;;3.97;2.30;;;1.90;99.90;;;;;;5090805;28;39738;-77
2021/01/24 04:54:10;;;;;;;6.77;2.10;;;1.90;99.90;;;;;;5081705;28;40597;-77
2021/01/24 04:56:38;;;;;;;4.20;2.50;;;1.80;99.90;;;;;;5090949;28;38910;-76
2021/01/24 04:59:04;;;;;;;7.13;2.87;;;1.70;99.90;;;;;;5089375;28;37203;-77
2021/01/24 05:01:34;;;;;;;3.93;2.60;;;1.60;99.90;;;;;;5091305;28;38130;-76
2021/01/24 05:04:00;;;;;;;6.27;3.00;;;1.50;99.90;;;;;;5098309;28;39882;-76
2021/01/24 05:06:27;;;;;;;4.77;2.60;;;1.50;99.90;;;;;;5084824;28;40982;-77
2021/01/24 05:08:57;;;;;;;4.80;2.57;;;1.50;99.90;;;;;;5089207;28;38483;-77
2021/01/24 05:11:24;;;;;;;10.10;5.03;;;1.60;99.90;;;;;;5068921;28;38841;-77
2021/01/24 05:13:50;;;;;;;7.17;3.70;;;1.70;99.90;;;;;;5090413;28;39276;-78
2021/01/24 05:16:21;;;;;;;4.40;2.50;;;1.80;99.90;;;;;;5081886;28;40930;-77
2021/01/24 05:18:55;;;;;;;6.53;2.63;;;2.00;99.90;;;;;;5087455;28;39704;-77
2021/01/24 05:21:21;;;;;;;4.97;1.80;;;2.20;99.90;;;;;;5072193;28;37406;-77
2021/01/24 05:23:48;;;;;;;1.67;0.90;;;2.20;99.90;;;;;;5078729;28;38654;-77
2021/01/24 05:26:14;;;;;;;2.70;0.83;;;2.20;99.90;;;;;;5064038;28;40325;-77
2021/01/24 05:28:47;;;;;;;6.67;1.60;;;2.10;99.90;;;;;;5087389;28;38479;-77
2021/01/24 05:31:14;;;;;;;5.67;0.80;;;2.00;99.90;;;;;;5087327;28;37663;-76
2021/01/24 05:33:46;;;;;;;3.37;0.70;;;2.10;99.90;;;;;;5089131;28;38602;-77
2021/01/24 05:36:12;;;;;;;6.93;1.00;;;2.20;99.90;;;;;;5084939;28;42825;-77
2021/01/24 05:38:38;;;;;;;4.60;0.90;;;2.30;99.90;;;;;;5081827;28;38216;-77
2021/01/24 05:41:09;;;;;;;2.07;0.83;;;2.30;99.90;;;;;;5071084;28;39024;-77
2021/01/24 05:43:41;;;;;;;5.07;1.17;;;2.30;99.90;;;;;;5070023;28;39533;-77
2021/01/24 05:46:08;;;;;;;1.87;0.90;;;2.20;99.90;;;;;;5090885;28;37650;-77
2021/01/24 05:48:35;;;;;;;3.37;0.80;;;2.10;99.90;;;;;;5092291;28;38428;-77
2021/01/24 05:51:04;;;;;;;2.83;0.90;;;2.10;99.90;;;;;;5100833;28;37106;-76
2021/01/24 05:53:44;;;;;;;3.20;0.73;;;2.00;99.90;;;;;;5074584;28;39176;-76
2021/01/24 05:56:15;;;;;;;2.30;0.70;;;1.90;99.90;;;;;;5076173;28;40513;-77
2021/01/24 05:58:41;;;;;;;4.77;1.17;;;1.80;99.90;;;;;;5078973;28;37559;-77
2021/01/24 06:01:08;;;;;;;3.50;1.10;;;1.80;99.90;;;;;;5072036;28;37621;-77
2021/01/24 06:03:39;;;;;;;4.93;1.50;;;1.80;99.90;;;;;;5074851;28;40745;-77
2021/01/24 06:06:05;;;;;;;4.53;1.27;;;1.80;99.90;;;;;;5075600;28;39169;-77
2021/01/24 06:08:31;;;;;;;4.47;1.10;;;1.70;99.90;;;;;;5067841;28;39878;-77
2021/01/24 06:10:59;;;;;;;5.80;1.10;;;1.50;99.90;;;;;;5077765;28;38922;-77
2021/01/24 06:13:27;;;;;;;5.47;1.63;;;1.60;99.90;;;;;;5085566;28;38928;-76
2021/01/24 06:15:57;;;;;;;4.37;1.53;;;1.60;99.90;;;;;;5079829;28;39671;-76
2021/01/24 06:18:47;;;;;;;3.37;1.60;;;1.60;99.90;;;;;;5094338;28;38347;-76
2021/01/24 06:21:20;;;;;;;4.23;1.73;;;1.50;99.90;;;;;;5087448;28;37133;-76
2021/01/24 06:23:55;;;;;;;5.50;1.92;;;1.40;99.90;;;;;;5087845;28;39779;-77
2021/01/24 06:26:23;;;;;;;3.57;1.93;;;1.50;99.90;;;;;;5079169;28;39375;-77
2021/01/24 06:28:57;;;;;;;6.43;2.17;;;1.70;99.90;;;;;;5086742;28;42532;-76
2021/01/24 06:31:23;;;;;;;4.17;1.60;;;1.70;99.90;;;;;;5090035;28;37399;-77
2021/01/24 06:33:53;;;;;;;3.63;2.13;;;1.70;99.90;;;;;;5088367;28;38466;-76
2021/01/24 06:36:20;;;;;;;4.33;1.97;;;1.70;99.90;;;;;;5088684;28;38905;-76
2021/01/24 06:38:54;;;;;;;10.07;2.33;;;1.60;99.90;;;;;;5091416;28;38298;-76
2021/01/24 06:41:46;;;;;;;4.17;2.00;;;1.50;99.90;;;;;;5088841;28;37275;-76
2021/01/24 06:44:34;;;;;;;5.40;2.37;;;1.40;99.90;;;;;;5063832;28;39863;-76
2021/01/24 06:47:27;;;;;;;6.50;2.50;;;1.30;99.90;;;;;;5093242;28;38921;-76
2021/01/24 06:49:53;;;;;;;;;;;1.30;99.90;;;;;;5100793;28;49165;-76
2021/01/24 06:52:22;;;;;;;7.43;2.93;;;1.20;99.90;;;;;;5089989;28;38018;-76
2021/01/24 06:54:49;;;;;;;6.47;3.60;;;1.30;99.90;;;;;;5090743;28;38382;-77
2021/01/24 06:57:16;;;;;;;6.90;4.47;;;1.40;99.90;;;;;;5075005;28;40722;-76
2021/01/24 06:59:42;;;;;;;9.47;4.83;;;1.40;99.90;;;;;;5078328;28;38117;-76
2021/01/24 07:02:25;;;;;;;11.30;5.20;;;1.60;99.90;;;;;;5079567;28;37954;-76
2021/01/24 07:05:13;;;;;;;11.63;6.27;;;1.60;99.90;;;;;;5090152;28;38703;-76
2021/01/24 07:07:41;;;;;;;14.03;7.03;;;1.60;99.90;;;;;;5068859;28;47411;-76
2021/01/24 07:10:10;;;;;;;13.80;5.97;;;1.60;99.90;;;;;;5089040;28;39542;-76
2021/01/24 07:12:38;;;;;;;12.80;8.23;;;1.60;99.90;;;;;;5093856;28;37281;-76
2021/01/24 07:15:09;;;;;;;9.67;6.73;;;1.60;99.90;;;;;;5067665;27;40373;-77
2021/01/24 07:17:36;;;;;;;17.63;8.60;;;1.60;99.90;;;;;;5088197;28;39827;-77
2021/01/24 07:20:05;;;;;;;18.93;8.87;;;1.60;99.90;;;;;;5078806;28;37260;-76
2021/01/24 07:22:31;;;;;;;14.80;9.47;;;1.70;99.90;;;;;;5086543;28;38208;-75
2021/01/24 07:24:57;;;;;;;18.20;11.10;;;1.70;99.90;;;;;;5090147;28;38883;-76
2021/01/24 07:27:27;;;;;;;10.53;5.43;;;1.80;99.90;;;;;;5092221;28;38966;-76
2021/01/24 07:29:53;;;;;;;11.80;5.80;;;2.10;99.90;;;;;;5090240;28;39272;-77
2021/01/24 07:32:24;;;;;;;10.87;5.00;;;2.20;99.90;;;;;;5077739;28;35895;-76
2021/01/24 07:34:52;;;;;;;13.10;5.47;;;2.30;99.90;;;;;;5089768;28;38638;-76
2021/01/24 07:37:19;;;;;;;16.37;6.83;;;2.40;99.90;;;;;;5085745;28;39514;-77
2021/01/24 07:39:47;;;;;;;16.93;5.67;;;2.50;99.90;;;;;;5085727;28;39789;-76
2021/01/24 07:42:14;;;;;;;13.17;5.47;;;2.50;99.90;;;;;;5088035;28;37258;-76
2021/01/24 07:44:43;;;;;;;13.53;4.37;;;2.50;99.90;;;;;;5086609;28;39558;-76
2021/01/24 07:47:10;;;;;;;16.97;5.20;;;2.60;99.90;;;;;;5091777;28;39291;-76
2021/01/24 07:49:37;;;;;;;15.17;5.57;;;2.70;99.90;;;;;;5080559;28;39439;-76
2021/01/24 07:52:04;;;;;;;14.63;6.00;;;2.80;99.90;;;;;;5086615;28;36860;-77
2021/01/24 07:54:31;;;;;;;13.80;4.60;;;2.90;99.90;;;;;;5076992;28;37664;-76
2021/01/24 07:56:57;;;;;;;15.67;4.67;;;3.00;99.90;;;;;;5089029;28;38952;-76
2021/01/24 07:59:24;;;;;;;16.37;6.40;;;3.00;99.90;;;;;;5090557;28;39188;-76
2021/01/24 08:01:52;;;;;;;14.70;5.03;;;3.00;99.90;;;;;;5075292;28;38942;-76
2021/01/24 08:04:22;;;;;;;13.40;5.07;;;3.10;99.90;;;;;;5086378;28;39599;-77
2021/01/24 08:06:50;;;;;;;11.10;4.70;;;3.10;99.90;;;;;;5079914;28;36875;-77
2021/01/24 08:09:16;;;;;;;14.00;4.83;;;3.10;99.90;;;;;;5077807;27;39268;-77
2021/01/24 08:11:43;;;;;;;15.30;4.97;;;3.10;99.90;;;;;;5088923;28;37241;-76
2021/01/24 08:14:09;;;;;;;14.60;5.13;;;3.00;99.90;;;;;;5075004;28;41724;-76
2021/01/24 08:16:43;;;;;;;9.20;4.50;;;3.00;99.90;;;;;;5083251;28;38124;-76
2021/01/24 08:19:12;;;;;;;13.30;5.07;;;2.90;99.90;;;;;;5088457;28;38533;-76
2021/01/24 08:21:39;;;;;;;14.83;4.80;;;2.90;99.90;;;;;;5097629;28;38094;-76
2021/01/24 08:24:06;;;;;;;14.63;4.60;;;2.90;99.90;;;;;;5092869;28;38874;-76
2021/01/24 08:26:37;;;;;;;14.73;5.17;;;2.90;99.90;;;;;;5062319;28;39584;-77
2021/01/24 08:29:04;;;;;;;14.57;4.40;;;2.90;99.90;;;;;;5070582;28;40302;-77
2021/01/24 08:31:32;;;;;;;15.80;3.80;;;2.80;99.90;;;;;;5096179;28;48298;-77
2021/01/24 08:34:00;;;;;;;10.53;3.60;;;2.80;99.90;;;;;;5064815;28;39694;-77
2021/01/24 08:36:28;;;;;;;19.57;4.83;;;2.80;99.90;;;;;;5087961;28;38932;-76
2021/01/24 08:38:59;;;;;;;14.93;4.37;;;2.70;99.90;;;;;;5071985;28;39446;-76
2021/01/24 08:41:34;;;;;;;10.53;4.77;;;2.70;99.90;;;;;;5075383;28;37921;-76
2021/01/24 08:44:15;;;;;;;17.57;4.27;;;2.70;99.90;;;;;;5084460;27;39280;-76
2021/01/24 08:46:48;;;;;;;10.00;3.73;;;2.70;99.90;;;;;;5092311;27;48713;-76
2021/01/24 08:49:25;;;;;;;13.90;4.13;;;2.70;99.90;;;;;;5078935;28;38718;-77
2021/01/24 08:51:54;;;;;;;21.97;5.37;;;2.70;99.90;;;;;;5090683;28;38642;-76
2021/01/24 08:54:37;;;;;;;13.33;4.10;;;2.70;99.90;;;;;;5066196;28;39789;-76
2021/01/24 08:57:08;;;;;;;19.33;7.70;;;2.80;99.90;;;;;;5079088;28;39805;-77
2021/01/24 08:59:35;;;;;;;13.93;4.20;;;2.90;99.90;;;;;;5090201;28;38450;-75
2021/01/24 09:02:01;;;;;;;10.07;3.70;;;2.90;99.90;;;;;;5078558;28;38808;-76
2021/01/24 09:04:30;;;;;;;9.40;4.07;;;2.80;99.90;;;;;;5083955;28;47057;-76
2021/01/24 09:07:17;;;;;;;10.33;3.50;;;2.80;99.90;;;;;;5099747;28;38977;-75
2021/01/24 09:09:45;;;;;;;11.70;4.13;;;2.90;99.90;;;;;;5093013;28;48208;-75
2021/01/24 09:12:14;;;;;;;13.73;4.07;;;2.90;99.90;;;;;;5075750;28;37443;-76
2021/01/24 09:14:40;;;;;;;9.10;3.50;;;2.90;99.90;;;;;;5076693;28;39908;-75
2021/01/24 09:17:09;;;;;;;10.17;3.50;;;2.90;99.90;;;;;;5085330;28;39051;-75
2021/01/24 09:19:41;;;;;;;10.73;4.57;;;3.00;99.90;;;;;;5095449;28;40174;-76
2021/01/24 09:22:15;;;;;;;10.70;3.50;;;3.10;99.90;;;;;;5085674;28;37356;-75
2021/01/24 09:24:41;;;;;;;10.33;4.10;;;3.10;99.90;;;;;;5066829;28;37620;-76
2021/01/24 09:27:10;;;;;;;8.63;3.47;;;3.20;99.90;;;;;;5079339;28;38499;-75
2021/01/24 09:29:38;;;;;;;9.90;3.40;;;3.30;99.90;;;;;;5078921;27;40104;-75
2021/01/24 09:32:05;;;;;;;6.93;3.10;;;3.40;99.90;;;;;;5089237;28;38101;-75
2021/01/24 09:34:31;;;;;;;7.33;3.10;;;3.40;99.90;;;;;;5088641;28;38373;-75
2021/01/24 09:36:57;;;;;;;8.37;4.17;;;3.50;99.90;;;;;;5081625;28;40224;-75
2021/01/24 09:39:24;;;;;;;7.43;3.17;;;3.50;99.90;;;;;;5093666;27;39579;-76
2021/01/24 09:41:50;;;;;;;8.90;3.30;;;3.60;99.90;;;;;;5081001;28;37976;-75
2021/01/24 09:44:16;;;;;;;9.73;3.60;;;3.60;99.90;;;;;;5078896;28;39777;-75
2021/01/24 09:46:43;;;;;;;9.53;3.90;;;3.70;99.90;;;;;;5089062;28;39014;-77
2021/01/24 09:49:09;;;;;;;11.40;4.53;;;3.80;99.90;;;;;;5083132;28;40857;-76
2021/01/24 09:51:35;;;;;;;7.47;3.00;;;3.90;99.90;;;;;;5089453;28;37146;-76
2021/01/24 09:54:02;;;;;;;9.40;3.57;;;4.00;99.90;;;;;;5080107;28;38850;-76
2021/01/24 09:56:29;;;;;;;10.57;3.10;;;4.00;99.90;;;;;;5081676;28;48776;-76
2021/01/24 09:58:57;;;;;;;9.40;3.20;;;4.10;99.90;;;;;;5070481;28;40183;-76
2021/01/24 10:01:23;;;;;;;6.57;3.07;;;4.10;99.90;;;;;;5079569;28;38582;-76
2021/01/24 10:03:51;;;;;;;8.10;3.57;;;4.10;99.90;;;;;;5079438;28;38874;-76
2021/01/24 10:06:18;;;;;;;5.97;2.93;;;4.10;99.90;;;;;;5086052;28;39614;-76
2021/01/24 10:08:45;;;;;;;7.03;2.97;;;4.10;99.90;;;;;;5089301;28;38591;-76
2021/01/24 10:11:12;;;;;;;7.30;3.70;;;4.10;99.90;;;;;;5107723;28;37925;-76
2021/01/24 10:13:38;;;;;;;5.30;3.10;;;4.10;99.90;;;;;;5102121;28;40443;-76
2021/01/24 10:16:05;;;;;;;9.33;3.37;;;4.10;99.90;;;;;;5071164;28;40306;-75
2021/01/24 10:18:31;;;;;;;6.43;3.30;;;4.10;99.90;;;;;;5089464;28;38877;-76
2021/01/24 10:20:57;;;;;;;9.83;2.90;;;4.10;99.90;;;;;;5085519;28;37278;-76
2021/01/24 10:23:25;;;;;;;5.70;3.20;;;4.10;99.90;;;;;;5091249;28;39963;-75
2021/01/24 10:25:53;;;;;;;8.73;3.13;;;4.10;99.90;;;;;;5082862;28;39193;-75
2021/01/24 10:28:20;;;;;;;10.43;3.87;;;4.10;99.90;;;;;;5092921;28;38991;-75
2021/01/24 10:30:47;;;;;;;7.03;4.20;;;4.10;99.90;;;;;;5088084;28;37296;-75
2021/01/24 10:33:13;;;;;;;9.83;3.37;;;4.20;99.90;;;;;;5074236;28;40369;-76
2021/01/24 10:35:40;;;;;;;6.73;2.73;;;4.20;99.90;;;;;;5097016;28;39465;-75
2021/01/24 10:38:07;;;;;;;6.50;2.17;;;4.20;99.90;;;;;;5084038;28;38723;-75
2021/01/24 10:40:34;;;;;;;6.77;2.00;;;4.20;99.90;;;;;;5098442;28;37076;-76
2021/01/24 10:43:02;;;;;;;6.30;2.13;;;4.30;99.90;;;;;;5078929;28;37543;-75
2021/01/24 10:45:30;;;;;;;6.53;2.10;;;4.20;99.90;;;;;;5080267;28;47324;-75
2021/01/24 10:47:57;;;;;;;11.17;2.37;;;4.20;99.90;;;;;;5080268;28;38939;-75
2021/01/24 10:50:24;;;;;;;5.70;2.30;;;4.30;99.90;;;;;;5090995;27;37383;-76
2021/01/24 10:52:50;;;;;;;7.00;2.73;;;4.30;99.90;;;;;;5098689;28;39684;-76
2021/01/24 10:55:17;;;;;;;7.20;2.23;;;4.30;99.90;;;;;;5079429;28;39238;-76
2021/01/24 10:57:43;;;;;;;7.97;2.10;;;4.30;99.90;;;;;;5085317;28;38888;-76
2021/01/24 11:00:10;;;;;;;10.30;2.10;;;4.30;99.90;;;;;;5098064;28;38087;-77
2021/01/24 11:02:36;;;;;;;6.23;2.43;;;4.30;99.90;;;;;;5080852;28;39463;-76
2021/01/24 11:05:04;;;;;;;5.03;2.23;;;4.40;99.90;;;;;;5100205;28;38754;-77
2021/01/24 11:07:30;;;;;;;5.73;2.43;;;4.40;99.90;;;;;;5099395;28;48301;-76
2021/01/24 11:09:56;;;;;;;4.50;2.30;;;4.50;99.90;;;;;;5104304;27;40924;-76
2021/01/24 11:12:23;;;;;;;8.27;2.17;;;4.50;99.90;;;;;;5091151;28;40627;-77
2021/01/24 11:14:49;;;;;;;7.50;2.07;;;4.50;99.90;;;;;;5101317;28;39657;-76
2021/01/24 11:17:17;;;;;;;6.43;2.50;;;4.50;99.90;;;;;;5092412;28;37992;-76
2021/01/24 11:19:44;;;;;;;3.90;2.67;;;4.60;99.90;;;;;;5100279;28;40229;-77
2021/01/24 11:22:11;;;;;;;7.67;3.00;;;4.60;99.90;;;;;;5096140;28;38864;-77
2021/01/24 11:24:37;;;;;;;7.50;2.57;;;4.70;99.90;;;;;;5071034;28;38966;-77
2021/01/24 11:27:07;;;;;;;7.47;2.30;;;4.70;99.90;;;;;;5084108;28;39601;-76
2021/01/24 11:29:34;;;;;;;8.73;2.80;;;4.80;99.90;;;;;;5101726;28;38397;-76
2021/01/24 11:32:01;;;;;;;6.33;2.43;;;4.70;99.90;;;;;;5102467;28;39246;-76
2021/01/24 11:34:27;;;;;;;3.40;2.10;;;4.80;99.90;;;;;;5097475;28;46924;-76
2021/01/24 11:36:54;;;;;;;5.20;2.30;;;4.90;99.90;;;;;;5093951;28;38454;-76
2021/01/24 11:39:20;;;;;;;7.47;2.40;;;4.80;99.90;;;;;;5091974;28;37883;-76
2021/01/24 11:41:47;;;;;;;6.77;1.93;;;4.90;99.90;;;;;;5081778;28;37647;-77
2021/01/24 11:44:14;;;;;;;5.20;1.80;;;4.90;99.90;;;;;;5089080;28;39435;-76
2021/01/24 11:46:40;;;;;;;5.37;2.27;;;5.00;99.90;;;;;;5076932;28;39136;-76
2021/01/24 11:49:07;;;;;;;3.50;1.87;;;5.00;99.90;;;;;;5087823;27;38020;-76
2021/01/24 11:51:33;;;;;;;8.57;4.57;;;5.10;99.90;;;;;;5091324;28;39058;-77
2021/01/24 11:54:00;;;;;;;4.30;2.00;;;5.10;99.90;;;;;;5099635;27;38925;-76
2021/01/24 11:56:26;;;;;;;7.43;2.97;;;5.10;99.90;;;;;;5098387;28;38454;-76
2021/01/24 11:58:52;;;;;;;8.30;3.43;;;5.20;99.90;;;;;;5086628;28;38153;-77
2021/01/24 12:01:18;;;;;;;10.47;3.20;;;5.20;99.90;;;;;;5081482;28;40381;-77
2021/01/24 12:03:44;;;;;;;8.17;3.00;;;5.20;99.90;;;;;;5083915;28;38849;-76
2021/01/24 12:06:10;;;;;;;8.83;3.37;;;5.20;99.90;;;;;;5098688;28;39632;-77
2021/01/24 12:08:36;;;;;;;5.73;3.10;;;5.20;99.90;;;;;;5075363;28;36300;-76
2021/01/24 12:11:02;;;;;;;6.97;2.97;;;5.10;99.90;;;;;;5080700;28;37698;-76
2021/01/24 12:13:28;;;;;;;6.27;3.13;;;5.10;99.90;;;;;;5064697;28;37777;-77
2021/01/24 12:15:55;;;;;;;4.60;2.80;;;5.20;99.90;;;;;;5091401;28;37958;-75
2021/01/24 12:18:23;;;;;;;8.10;3.37;;;5.20;99.90;;;;;;5096154;28;38163;-77
2021/01/24 12:20:49;;;;;;;9.37;3.60;;;5.20;99.90;;;;;;5089888;28;37722;-76
2021/01/24 12:23:16;;;;;;;5.53;2.53;;;5.20;99.90;;;;;;5088719;28;37584;-77
2021/01/24 12:25:42;;;;;;;5.97;2.90;;;5.20;99.90;;;;;;5085461;28;38423;-77
2021/01/24 12:28:08;;;;;;;7.90;2.57;;;5.20;99.90;;;;;;5093702;28;38008;-76
2021/01/24 12:30:34;;;;;;;7.50;3.00;;;5.20;99.90;;;;;;5079973;28;39334;-76
2021/01/24 12:33:00;;;;;;;6.43;2.60;;;5.30;99.90;;;;;;5108217;28;39196;-76
2021/01/24 12:35:26;;;;;;;6.77;2.97;;;5.30;99.90;;;;;;5081031;28;38901;-75
2021/01/24 12:37:53;;;;;;;5.30;3.33;;;5.20;99.90;;;;;;5072735;28;36389;-76
2021/01/24 12:40:20;;;;;;;3.77;2.23;;;5.20;99.90;;;;;;5091262;27;38369;-75
2021/01/24 12:42:46;;;;;;;5.60;2.33;;;5.10;99.90;;;;;;5089239;28;38152;-76
2021/01/24 12:45:13;;;;;;;7.73;3.03;;;5.10;99.90;;;;;;5081558;28;36974;-76
2021/01/24 12:47:39;;;;;;;7.17;3.37;;;5.20;99.90;;;;;;5075927;28;37934;-76
2021/01/24 12:50:07;;;;;;;6.73;2.97;;;5.10;99.90;;;;;;5084993;28;39350;-76
2021/01/24 12:52:33;;;;;;;6.67;2.80;;;5.00;99.90;;;;;;5075979;28;39651;-76
2021/01/24 12:54:59;;;;;;;6.87;3.20;;;5.00;99.90;;;;;;5097631;28;39558;-76
2021/01/24 12:57:25;;;;;;;7.70;3.00;;;5.00;99.90;;;;;;5076856;28;39213;-77
2021/01/24 12:59:51;;;;;;;7.03;3.50;;;5.00;99.90;;;;;;5071986;28;38479;-77
2021/01/24 13:02:17;;;;;;;6.60;3.30;;;4.90;99.90;;;;;;5080883;28;39392;-76